Time;durP1;ratioP1;P1;durP2;ratioP2;P2;SDS_P1;SDS_P2;PMS_P1;PMS_P2;Temp;Humidity;BMP_temperature;BMP_pressure;BME280_temperature;BME280_humidity;BME280_pressure;Samples;Min_cycle;Max_cycle;Signal;HPM_P1;HPM_P2
2022/07/24 00:00:08;;;;;;;6.70;3.00;;;;;;;24.19;39.23;100840.17;107781;1244;61316;-75
2022/07/24 00:03:00;;;;;;;5.40;3.20;;;;;;;24.19;39.40;100834.20;107681;1244;58988;-75
2022/07/24 00:05:29;;;;;;;5.70;3.10;;;;;;;24.17;39.76;100832.92;108026;1244;62868;-75
2022/07/24 00:07:58;;;;;;;8.70;3.30;;;;;;;24.13;39.11;100825.84;107830;1245;71617;-77
2022/07/24 00:10:27;;;;;;;6.90;3.10;;;;;;;24.10;39.02;100829.36;107816;1244;70912;-78
2022/07/24 00:12:56;;;;;;;6.60;3.30;;;;;;;24.05;38.88;100822.67;108001;1243;72061;-75
2022/07/24 00:15:25;;;;;;;5.70;3.20;;;;;;;24.01;38.92;100823.89;108037;1244;60433;-75
2022/07/24 00:17:53;;;;;;;5.80;2.90;;;;;;;23.98;38.72;100820.98;107924;1244;59627;-72
2022/07/24 00:20:22;;;;;;;5.20;2.60;;;;;;;23.93;38.72;100811.23;107862;1244;63760;-74
2022/07/24 00:22:51;;;;;;;5.20;3.00;;;;;;;23.93;38.37;100813.77;107552;1246;72286;-73
2022/07/24 00:25:20;;;;;;;9.20;3.10;;;;;;;23.90;38.62;100810.73;107612;1244;60271;-76
2022/07/24 00:27:49;;;;;;;7.60;3.60;;;;;;;23.87;39.79;100808.08;107584;1244;72498;-76
2022/07/24 00:30:18;;;;;;;7.60;3.10;;;;;;;23.83;40.30;100814.33;107817;1244;58814;-74
2022/07/24 00:32:47;;;;;;;9.10;3.50;;;;;;;23.75;40.45;100817.23;107600;1244;61333;-75
2022/07/24 00:35:17;;;;;;;8.40;3.00;;;;;;;23.68;40.66;100814.67;107547;1244;74548;-75
2022/07/24 00:37:46;;;;;;;5.90;3.20;;;;;;;23.63;40.89;100811.02;107659;1244;61247;-74
2022/07/24 00:40:15;;;;;;;4.70;3.10;;;;;;;23.59;40.33;100803.01;107603;1244;60064;-75
2022/07/24 00:42:44;;;;;;;10.60;3.30;;;;;;;23.55;40.21;100805.08;107468;1244;62445;-76
2022/07/24 00:45:13;;;;;;;5.70;2.90;;;;;;;23.51;40.13;100804.42;107555;1244;59704;-76
2022/07/24 00:47:53;;;;;;;6.80;3.10;;;;;;;23.47;40.01;100802.80;107670;1244;60751;-74
2022/07/24 00:50:26;;;;;;;10.70;3.60;;;;;;;23.49;39.90;100796.70;107755;1244;72364;-75
2022/07/24 00:52:56;;;;;;;18.50;3.70;;;;;;;23.46;40.89;100794.05;107459;1244;73073;-75
2022/07/24 00:55:27;;;;;;;9.40;3.40;;;;;;;23.38;41.31;100791.86;107638;1244;59620;-74
2022/07/24 00:57:56;;;;;;;8.20;3.50;;;;;;;23.25;41.54;100788.73;107473;1244;73864;-74
2022/07/24 01:00:25;;;;;;;12.30;3.60;;;;;;;23.15;41.78;100784.02;107481;1247;58617;-75
2022/07/24 01:02:54;;;;;;;8.60;3.30;;;;;;;23.04;42.59;100787.61;107978;1244;60262;-75
2022/07/24 01:05:24;;;;;;;17.70;3.40;;;;;;;22.96;42.59;100779.87;107911;1244;74398;-74
2022/07/24 01:07:53;;;;;;;8.40;3.40;;;;;;;22.93;42.90;100780.46;107779;1244;62124;-77
2022/07/24 01:10:22;;;;;;;7.70;2.90;;;;;;;22.89;43.00;100776.52;107855;1244;68701;-74
2022/07/24 01:12:51;;;;;;;11.30;3.20;;;;;;;22.79;43.43;100778.44;107871;1243;63287;-77
2022/07/24 01:15:20;;;;;;;6.70;3.30;;;;;;;22.68;43.78;100779.99;107426;1244;662582;-74
2022/07/24 01:17:50;;;;;;;7.70;2.90;;;;;;;22.52;44.23;100777.33;107794;1244;59519;-75
2022/07/24 01:20:20;;;;;;;9.00;3.00;;;;;;;22.43;44.73;100771.16;107667;1244;75015;-75
2022/07/24 01:22:49;;;;;;;5.60;3.10;;;;;;;22.42;44.51;100766.31;107893;1244;71726;-73
2022/07/24 01:25:17;;;;;;;10.30;3.20;;;;;;;22.40;45.02;100756.95;107814;1244;70407;-74
2022/07/24 01:27:46;;;;;;;5.60;2.90;;;;;;;22.39;44.94;100755.59;107845;1244;62320;-73
2022/07/24 01:30:15;;;;;;;6.30;3.00;;;;;;;22.39;45.05;100757.63;107807;1244;59588;-74
2022/07/24 01:32:44;;;;;;;7.60;3.30;;;;;;;22.37;44.42;100756.40;107776;1244;59583;-76
2022/07/24 01:35:13;;;;;;;9.00;4.10;;;;;;;22.37;44.27;100758.77;107934;1244;72789;-75
2022/07/24 01:37:54;;;;;;;7.10;4.50;;;;;;;22.37;43.94;100758.11;107932;1242;71696;-75
2022/07/24 01:40:24;;;;;;;7.30;4.00;;;;;;;22.35;44.25;100753.17;107930;1244;60441;-75
2022/07/24 01:42:52;;;;;;;9.70;5.20;;;;;;;22.31;44.49;100746.50;107790;1244;73054;-76
2022/07/24 01:45:22;;;;;;;8.20;4.80;;;;;;;22.30;44.42;100739.77;107617;1246;59619;-77
2022/07/24 01:47:51;;;;;;;8.60;4.60;;;;;;;22.29;44.20;100729.80;107558;1245;61348;-76
2022/07/24 01:50:20;;;;;;;11.50;4.80;;;;;;;22.33;44.46;100727.89;107696;1244;74481;-77
2022/07/24 01:52:49;;;;;;;8.00;4.70;;;;;;;22.35;43.56;100729.91;107684;1244;61187;-76
2022/07/24 01:55:20;;;;;;;6.80;4.80;;;;;;;22.38;42.83;100735.52;107720;1244;60761;-74
2022/07/24 01:57:49;;;;;;;12.10;5.30;;;;;;;22.44;42.52;100736.08;107917;1244;63316;-77
2022/07/24 02:00:18;;;;;;;5.60;4.20;;;;;;;22.49;42.27;100733.48;107814;1244;59634;-76
2022/07/24 02:02:47;;;;;;;7.10;4.40;;;;;;;22.58;42.59;100733.98;107842;1244;59564;-72
2022/07/24 02:05:16;;;;;;;6.50;4.10;;;;;;;22.59;43.48;100733.54;107824;1244;63800;-74
2022/07/24 02:07:45;;;;;;;9.30;4.50;;;;;;;22.56;43.75;100736.08;107827;1244;60883;-76
2022/07/24 02:10:14;;;;;;;9.60;4.40;;;;;;;22.54;43.55;100739.17;107722;1244;69649;-75
2022/07/24 02:12:43;;;;;;;9.80;4.50;;;;;;;22.52;43.43;100741.66;107680;1244;63522;-74
2022/07/24 02:15:12;;;;;;;6.20;3.60;;;;;;;22.48;42.77;100744.08;107641;1243;60511;-72
2022/07/24 02:17:47;;;;;;;6.90;3.40;;;;;;;22.48;42.57;100749.06;107666;1244;60678;-74
2022/07/24 02:20:17;;;;;;;6.20;3.50;;;;;;;22.52;42.54;100752.84;107844;1244;73891;-74
2022/07/24 02:22:46;;;;;;;9.20;3.70;;;;;;;22.52;42.76;100744.89;107874;1243;61385;-75
2022/07/24 02:25:16;;;;;;;6.80;4.00;;;;;;;22.55;43.14;100747.88;107742;1244;60144;-75
2022/07/24 02:27:45;;;;;;;12.60;3.90;;;;;;;22.51;43.44;100743.69;107950;1244;73938;-74
2022/07/24 02:30:18;;;;;;;9.10;3.90;;;;;;;22.43;43.77;100738.73;107538;1244;60853;-73
2022/07/24 02:32:47;;;;;;;8.00;3.90;;;;;;;22.40;43.64;100746.17;107898;1244;59678;-76
2022/07/24 02:35:17;;;;;;;10.80;3.60;;;;;;;22.32;43.72;100737.74;107592;1244;73718;-73
2022/07/24 02:37:46;;;;;;;5.40;3.40;;;;;;;22.29;43.67;100731.16;107713;1246;71050;-74
2022/07/24 02:40:15;;;;;;;5.80;3.60;;;;;;;22.28;43.34;100730.06;107880;1243;60524;-75
2022/07/24 02:42:44;;;;;;;10.30;3.40;;;;;;;22.30;42.94;100733.71;107883;1244;62462;-74
2022/07/24 02:45:13;;;;;;;8.70;3.80;;;;;;;22.34;42.89;100736.13;107874;1243;59566;-74
2022/07/24 02:47:55;;;;;;;8.80;3.90;;;;;;;22.39;43.02;100733.65;107840;1244;57831;-74
2022/07/24 02:50:29;;;;;;;12.50;4.40;;;;;;;22.42;42.70;100737.17;107963;1244;74436;-77
2022/07/24 02:52:59;;;;;;;7.40;3.60;;;;;;;22.40;43.13;100737.23;107779;1244;71252;-76
2022/07/24 02:55:28;;;;;;;6.80;3.60;;;;;;;22.39;43.13;100740.33;107966;1244;70232;-76
2022/07/24 02:57:57;;;;;;;5.50;3.40;;;;;;;22.37;43.42;100746.98;107922;1244;75301;-79
2022/07/24 03:00:26;;;;;;;12.50;3.50;;;;;;;22.32;43.64;100747.98;107816;1244;61293;-78
2022/07/24 03:02:55;;;;;;;5.70;3.60;;;;;;;22.32;43.75;100750.27;107844;1244;58019;-75
2022/07/24 03:05:24;;;;;;;4.50;3.00;;;;;;;22.35;43.83;100750.80;107802;1244;73828;-75
2022/07/24 03:07:52;;;;;;;8.60;3.40;;;;;;;22.39;43.41;100754.86;107886;1244;72358;-73
2022/07/24 03:10:21;;;;;;;6.30;3.80;;;;;;;22.37;43.18;100760.27;107742;1244;70413;-74
2022/07/24 03:12:50;;;;;;;7.40;3.10;;;;;;;22.35;42.99;100765.94;107845;1244;63720;-73
2022/07/24 03:15:19;;;;;;;7.50;3.60;;;;;;;22.31;43.36;100772.58;107664;1244;59010;-73
2022/07/24 03:17:54;;;;;;;6.60;4.30;;;;;;;22.29;43.30;100772.88;107733;1244;59533;-73
2022/07/24 03:20:28;;;;;;;6.40;3.00;;;;;;;22.23;44.66;100768.42;107607;1244;73470;-72
2022/07/24 03:22:57;;;;;;;6.40;3.80;;;;;;;22.16;44.48;100769.27;107629;1244;71837;-75
2022/07/24 03:25:26;;;;;;;7.30;3.60;;;;;;;22.14;44.07;100776.86;107657;1247;68676;-73
2022/07/24 03:27:57;;;;;;;7.50;3.70;;;;;;;22.08;44.43;100782.31;107733;1244;73620;-73
2022/07/24 03:30:26;;;;;;;7.80;3.20;;;;;;;22.02;44.88;100783.94;107704;1244;59618;-74
2022/07/24 03:32:55;;;;;;;14.00;3.80;;;;;;;21.99;45.10;100787.86;107724;1245;60856;-75
2022/07/24 03:35:24;;;;;;;13.30;4.60;;;;;;;21.97;45.36;100790.55;107884;1244;75052;-73
2022/07/24 03:37:53;;;;;;;10.00;4.10;;;;;;;21.95;45.19;100792.66;107693;1244;74074;-73
2022/07/24 03:40:21;;;;;;;19.10;4.20;;;;;;;21.91;46.24;100791.54;107918;1244;70374;-74
2022/07/24 03:42:50;;;;;;;17.70;4.20;;;;;;;21.90;46.46;100796.11;107768;1244;73365;-73
2022/07/24 03:45:19;;;;;;;10.80;4.50;;;;;;;21.95;44.95;100792.70;107846;1244;60540;-74
2022/07/24 03:47:48;;;;;;;9.00;4.50;;;;;;;21.95;44.42;100787.77;107666;1244;61059;-74
2022/07/24 03:50:17;;;;;;;8.20;4.40;;;;;;;21.91;44.12;100788.02;107722;1244;63536;-73
2022/07/24 03:52:50;;;;;;;11.60;4.10;;;;;;;21.87;44.23;100793.44;107571;1244;62558;-73
2022/07/24 03:55:19;;;;;;;9.60;4.30;;;;;;;21.92;44.82;100790.63;107689;1244;59544;-73
2022/07/24 03:57:48;;;;;;;11.50;4.80;;;;;;;21.99;45.93;100798.67;107753;1244;63147;-75
2022/07/24 04:00:17;;;;;;;19.00;5.10;;;;;;;21.95;46.68;100812.38;107958;1244;59624;-75
2022/07/24 04:02:46;;;;;;;12.10;4.10;;;;;;;21.92;47.34;100817.39;107817;1244;59412;-76
2022/07/24 04:05:15;;;;;;;7.20;3.40;;;;;;;21.89;46.33;100819.33;107791;1244;74090;-72
2022/07/24 04:07:44;;;;;;;12.60;3.70;;;;;;;21.80;46.73;100816.28;107789;1244;72297;-74
2022/07/24 04:10:12;;;;;;;10.60;4.30;;;;;;;21.76;46.46;100822.39;107588;1245;70080;-76
2022/07/24 04:12:41;;;;;;;7.90;4.50;;;;;;;21.75;46.30;100826.96;107858;1244;63995;-76
2022/07/24 04:15:10;;;;;;;7.30;4.10;;;;;;;21.73;47.32;100821.08;107714;1244;57925;-78
2022/07/24 04:17:41;;;;;;;10.70;5.20;;;;;;;21.71;47.92;100815.90;107457;1246;57811;-74
2022/07/24 04:20:12;;;;;;;8.10;5.00;;;;;;;21.77;47.98;100828.71;107804;1244;63734;-74
2022/07/24 04:22:40;;;;;;;7.50;4.40;;;;;;;21.82;46.97;100836.55;107873;1244;71366;-72
2022/07/24 04:25:10;;;;;;;8.40;3.80;;;;;;;21.89;46.68;100840.59;107901;1244;60545;-74
2022/07/24 04:27:39;;;;;;;11.70;4.40;;;;;;;21.95;47.12;100835.24;107876;1244;63087;-73
2022/07/24 04:30:10;;;;;;;10.10;4.20;;;;;;;22.04;47.13;100830.71;107786;1244;59621;-75
2022/07/24 04:32:38;;;;;;;7.50;4.00;;;;;;;22.25;46.18;100827.27;107978;1243;60427;-74
2022/07/24 04:35:08;;;;;;;10.70;4.10;;;;;;;22.44;45.13;100815.71;107679;1244;64137;-75
2022/07/24 04:37:36;;;;;;;7.70;4.60;;;;;;;22.66;44.74;100803.48;107831;1244;71441;-75
2022/07/24 04:40:06;;;;;;;10.00;4.20;;;;;;;22.82;44.34;100803.10;107831;1244;60376;-74
2022/07/24 04:42:35;;;;;;;11.50;4.00;;;;;;;22.91;43.84;100804.89;107772;1244;74179;-74
2022/07/24 04:45:08;;;;;;;10.90;4.30;;;;;;;22.99;43.57;100810.56;107757;1244;61176;-75
2022/07/24 04:47:37;;;;;;;8.00;3.80;;;;;;;23.11;43.12;100806.42;108067;1244;58970;-74
2022/07/24 04:50:07;;;;;;;12.10;4.50;;;;;;;23.21;43.02;100808.02;107749;1244;63707;-76
2022/07/24 04:52:36;;;;;;;8.50;4.60;;;;;;;23.32;42.91;100808.62;107905;1244;70461;-75
2022/07/24 04:55:06;;;;;;;7.50;4.30;;;;;;;23.37;42.90;100805.50;107715;1245;59551;-74
2022/07/24 04:57:35;;;;;;;10.00;4.40;;;;;;;23.40;42.91;100803.02;107845;1244;62451;-78
2022/07/24 05:00:09;;;;;;;15.00;5.30;;;;;;;23.50;42.91;100798.39;107918;1244;59528;-76
2022/07/24 05:02:38;;;;;;;7.80;4.40;;;;;;;23.63;42.83;100802.23;107798;1244;61233;-77
2022/07/24 05:05:07;;;;;;;7.90;4.40;;;;;;;23.77;42.38;100799.42;107834;1244;63390;-77
2022/07/24 05:07:36;;;;;;;7.80;4.20;;;;;;;23.88;41.44;100795.23;107736;1244;70350;-79
2022/07/24 05:10:06;;;;;;;12.90;6.80;;;;;;;23.93;41.21;100796.74;107946;1243;60132;-73
2022/07/24 05:12:35;;;;;;;9.80;6.70;;;;;;;24.04;41.02;100805.63;107872;1244;74030;-76
2022/07/24 05:15:06;;;;;;;11.10;5.90;;;;;;;24.18;40.75;100808.05;107745;1244;62008;-76
2022/07/24 05:17:35;;;;;;;11.00;5.40;;;;;;;24.14;40.63;100805.89;107792;1244;59599;-77
2022/07/24 05:20:06;;;;;;;8.60;5.60;;;;;;;24.23;40.58;100811.61;107800;1244;63752;-76
2022/07/24 05:22:35;;;;;;;12.00;4.80;;;;;;;24.36;40.68;100813.77;107824;1244;72211;-75
2022/07/24 05:25:06;;;;;;;9.30;4.50;;;;;;;24.46;40.62;100815.33;107524;1245;59713;-77
2022/07/24 05:27:35;;;;;;;10.80;5.20;;;;;;;24.56;40.61;100816.30;108138;1244;63613;-75
2022/07/24 05:30:05;;;;;;;11.10;5.20;;;;;;;24.65;41.26;100812.27;108022;1244;59653;-72
2022/07/24 05:32:34;;;;;;;8.40;5.30;;;;;;;24.67;41.73;100811.70;107948;1244;57969;-75
2022/07/24 05:35:04;;;;;;;8.20;5.50;;;;;;;24.73;42.84;100814.05;108128;1244;62963;-82
2022/07/24 05:37:33;;;;;;;6.90;5.40;;;;;;;24.77;43.20;100814.15;107915;1243;72246;-78
2022/07/24 05:40:03;;;;;;;10.70;5.20;;;;;;;24.77;43.08;100818.76;108080;1244;70506;-75
2022/07/24 05:42:33;;;;;;;6.80;4.30;;;;;;;24.79;42.99;100812.20;107918;1244;63630;-76
2022/07/24 05:45:04;;;;;;;9.80;5.50;;;;;;;24.81;43.16;100810.76;108099;1244;58029;-78
2022/07/24 05:47:41;;;;;;;9.00;5.60;;;;;;;24.89;43.59;100806.54;108173;1244;59193;-80
2022/07/24 05:50:13;;;;;;;8.60;5.60;;;;;;;24.91;43.59;100806.02;107709;1244;74469;-78
2022/07/24 05:52:42;;;;;;;;;;;;;;;24.94;43.26;100812.58;108128;1244;61296;-77
2022/07/24 05:55:11;;;;;;;9.20;6.10;;;;;;;25.02;43.37;100812.94;107929;1244;60996;-75
2022/07/24 05:57:45;;;;;;;7.30;5.10;;;;;;;25.14;43.04;100802.23;108034;1244;64163;-74
2022/07/24 06:00:18;;;;;;;10.40;6.00;;;;;;;25.36;42.85;100805.42;107944;1244;59607;-79
2022/07/24 06:02:51;;;;;;;6.80;4.30;;;;;;;25.54;41.67;100800.81;107798;1244;61268;-76
2022/07/24 06:05:20;;;;;;;9.80;4.40;;;;;;;25.56;40.72;100801.23;108116;1244;63521;-77
2022/07/24 06:07:49;;;;;;;9.80;4.70;;;;;;;25.58;40.70;100798.64;107865;1245;62707;-77
2022/07/24 06:10:18;;;;;;;10.30;4.90;;;;;;;25.65;40.37;100792.05;107783;1245;60067;-75
2022/07/24 06:12:53;;;;;;;12.30;4.80;;;;;;;25.60;40.03;100781.97;107931;1242;74568;-76
2022/07/24 06:15:23;;;;;;;8.30;4.50;;;;;;;25.65;39.45;100778.29;107805;1244;59698;-77
2022/07/24 06:17:51;;;;;;;8.40;4.60;;;;;;;25.76;39.77;100777.60;107958;1244;59609;-75
2022/07/24 06:20:20;;;;;;;8.00;4.60;;;;;;;25.83;39.96;100775.98;108000;1244;63139;-75
2022/07/24 06:22:49;;;;;;;11.30;4.10;;;;;;;25.95;39.69;100773.33;107878;1244;60808;-79
2022/07/24 06:25:19;;;;;;;10.50;3.80;;;;;;;26.09;39.30;100779.05;108032;1244;59602;-75
2022/07/24 06:27:51;;;;;;;7.60;3.80;;;;;;;26.17;38.71;100772.92;107914;1244;73892;-76
2022/07/24 06:30:26;;;;;;;9.50;4.90;;;;;;;26.33;37.96;100772.53;107750;1244;60939;-76
2022/07/24 06:32:56;;;;;;;;;;;;;;;26.57;39.45;100770.50;107838;1244;61398;-77
2022/07/24 06:35:28;;;;;;;11.00;5.00;;;;;;;26.57;40.75;100770.95;107892;1244;73863;-75
2022/07/24 06:37:56;;;;;;;10.00;5.30;;;;;;;26.69;40.45;100773.05;108027;1244;72606;-76
2022/07/24 06:40:26;;;;;;;8.40;4.80;;;;;;;26.79;40.31;100774.92;107957;1244;60463;-78
2022/07/24 06:42:55;;;;;;;9.20;5.90;;;;;;;26.79;40.88;100771.20;108039;1244;64832;-75
2022/07/24 06:45:24;;;;;;;15.60;6.30;;;;;;;26.79;42.31;100766.75;107680;1244;60151;-73
2022/07/24 06:47:53;;;;;;;9.90;6.00;;;;;;;26.88;42.49;100756.88;108040;1244;59483;-78
2022/07/24 06:50:22;;;;;;;9.00;5.60;;;;;;;27.13;42.38;100746.65;107730;1244;74426;-75
2022/07/24 06:52:51;;;;;;;12.50;5.80;;;;;;;27.32;42.02;100745.18;107883;1244;62354;-77
2022/07/24 06:55:20;;;;;;;14.40;6.50;;;;;;;27.39;42.26;100746.40;107939;1244;60948;-78
2022/07/24 06:57:49;;;;;;;12.30;6.70;;;;;;;27.45;42.16;100743.94;108037;1244;63275;-78
2022/07/24 07:00:18;;;;;;;11.40;6.00;;;;;;;27.51;42.44;100740.55;108008;1244;59566;-78
2022/07/24 07:02:47;;;;;;;15.00;6.40;;;;;;;27.71;42.12;100733.71;107819;1244;59491;-77
2022/07/24 07:05:18;;;;;;;9.40;6.50;;;;;;;27.66;42.12;100735.65;108042;1244;63053;-79
2022/07/24 07:07:47;;;;;;;9.80;5.80;;;;;;;27.73;41.85;100739.30;107671;1244;61806;-77
2022/07/24 07:10:16;;;;;;;10.00;6.00;;;;;;;27.87;41.38;100749.60;107898;1242;70478;-76
2022/07/24 07:12:44;;;;;;;9.20;6.30;;;;;;;28.03;41.46;100757.27;107805;1244;74371;-77
2022/07/24 07:15:13;;;;;;;12.60;6.10;;;;;;;28.18;41.28;100765.17;107939;1244;58348;-76
2022/07/24 07:17:42;;;;;;;13.40;6.20;;;;;;;28.13;40.89;100765.16;107728;1244;59013;-76
2022/07/24 07:20:12;;;;;;;15.20;6.20;;;;;;;27.88;41.27;100760.36;107925;1244;64026;-78
2022/07/24 07:22:42;;;;;;;10.90;6.10;;;;;;;27.54;42.22;100753.05;107988;1244;61441;-78
2022/07/24 07:25:11;;;;;;;12.20;6.60;;;;;;;27.53;42.27;100758.23;107903;1244;59621;-78
2022/07/24 07:27:40;;;;;;;11.90;6.50;;;;;;;27.59;42.08;100774.77;107799;1244;63321;-76
2022/07/24 07:30:09;;;;;;;13.80;5.50;;;;;;;27.52;42.54;100775.56;107950;1244;59616;-76
2022/07/24 07:32:39;;;;;;;11.70;5.90;;;;;;;27.42;42.47;100782.43;108056;1244;61268;-76
2022/07/24 07:35:09;;;;;;;12.50;6.70;;;;;;;27.31;42.64;100792.67;107652;1244;74889;-77
2022/07/24 07:37:50;;;;;;;13.30;5.70;;;;;;;27.23;42.15;100801.85;107986;1244;72626;-76
2022/07/24 07:40:19;;;;;;;9.60;5.80;;;;;;;27.13;42.43;100802.41;108013;1244;70304;-76
2022/07/24 07:42:47;;;;;;;11.40;5.30;;;;;;;26.97;43.01;100800.35;107934;1244;73771;-78
2022/07/24 07:45:16;;;;;;;9.40;5.80;;;;;;;26.93;43.15;100803.96;107876;1245;59661;-78
2022/07/24 07:47:45;;;;;;;7.80;5.60;;;;;;;26.90;43.35;100804.73;107955;1244;59638;-76
2022/07/24 07:50:14;;;;;;;10.00;5.40;;;;;;;26.89;43.21;100809.98;107984;1244;63738;-76
2022/07/24 07:52:43;;;;;;;11.90;5.50;;;;;;;26.90;43.07;100816.48;107726;1244;72430;-78
2022/07/24 07:55:12;;;;;;;12.00;5.10;;;;;;;26.82;43.26;100825.45;107916;1244;60509;-77
2022/07/24 07:57:44;;;;;;;7.70;5.30;;;;;;;26.90;43.29;100831.90;107800;1244;63323;-77
2022/07/24 08:00:33;;;;;;;9.80;5.60;;;;;;;26.85;43.71;100836.10;107799;1244;61116;-77
2022/07/24 08:03:02;;;;;;;10.00;5.30;;;;;;;26.80;43.49;100846.17;107661;1244;61746;-77
2022/07/24 08:05:31;;;;;;;12.90;5.20;;;;;;;26.55;44.10;100850.21;107975;1244;64064;-77
2022/07/24 08:08:00;;;;;;;10.90;5.20;;;;;;;26.38;44.73;100847.91;108037;1244;61620;-77
2022/07/24 08:10:30;;;;;;;12.80;6.20;;;;;;;26.20;46.19;100847.41;108076;1244;59913;-80
2022/07/24 08:12:58;;;;;;;10.80;5.60;;;;;;;26.09;47.29;100846.13;108042;1244;73212;-74
2022/07/24 08:15:27;;;;;;;8.60;4.90;;;;;;;25.98;47.54;100843.19;107684;1246;59669;-76
2022/07/24 08:17:58;;;;;;;9.00;6.00;;;;;;;25.91;48.74;100830.48;107860;1244;58034;-76
2022/07/24 08:20:27;;;;;;;12.10;5.50;;;;;;;25.84;49.22;100823.29;107643;1244;73609;-77
2022/07/24 08:22:56;;;;;;;12.00;5.50;;;;;;;25.81;50.54;100835.19;107850;1243;60750;-76
2022/07/24 08:25:27;;;;;;;10.50;5.70;;;;;;;25.70;52.53;100855.17;107871;1244;69821;-75
2022/07/24 08:27:56;;;;;;;9.20;5.40;;;;;;;25.69;50.89;100872.81;107787;1244;71919;-78
2022/07/24 08:30:26;;;;;;;10.10;5.20;;;;;;;25.63;50.55;100875.55;107762;1244;61685;-77
2022/07/24 08:32:55;;;;;;;10.40;6.20;;;;;;;25.42;51.75;100874.95;108117;1244;58564;-81
2022/07/24 08:35:24;;;;;;;9.80;5.90;;;;;;;25.02;56.17;100872.80;108044;1244;74402;-76
2022/07/24 08:38:00;;;;;;;11.30;5.80;;;;;;;24.85;56.77;100863.45;107984;1244;71952;-78
2022/07/24 08:40:35;;;;;;;9.10;6.10;;;;;;;24.79;57.47;100863.11;107888;1244;70902;-79
2022/07/24 08:43:07;;;;;;;10.00;5.90;;;;;;;24.74;58.00;100861.73;107899;1245;63840;-76
2022/07/24 08:45:43;;;;;;;14.30;6.90;;;;;;;24.59;59.06;100846.88;107913;1244;60310;-77
2022/07/24 08:48:13;;;;;;;13.20;6.70;;;;;;;24.55;61.10;100829.03;107955;1244;62144;-73
2022/07/24 08:50:43;;;;;;;9.30;6.00;;;;;;;24.50;61.41;100836.69;108059;1244;74857;-77
2022/07/24 08:53:11;;;;;;;8.60;5.90;;;;;;;24.53;59.65;100843.32;107861;1244;63759;-78
2022/07/24 08:55:40;;;;;;;12.50;6.30;;;;;;;24.64;58.78;100846.60;107895;1244;59840;-78
2022/07/24 08:58:09;;;;;;;8.90;5.50;;;;;;;24.71;57.78;100849.27;107817;1244;73883;-77
2022/07/24 09:00:37;;;;;;;7.20;5.30;;;;;;;24.69;57.22;100845.11;107823;1243;61127;-78
2022/07/24 09:03:06;;;;;;;10.10;5.80;;;;;;;24.79;57.34;100839.20;107990;1244;59612;-78
2022/07/24 09:05:54;;;;;;;13.40;5.80;;;;;;;24.90;57.31;100844.44;107835;1244;64859;-76
2022/07/24 09:08:23;;;;;;;10.40;6.00;;;;;;;25.05;55.84;100861.86;108018;1244;71414;-76
2022/07/24 09:11:03;;;;;;;12.70;6.80;;;;;;;25.10;56.36;100881.59;108054;1244;69397;-77
2022/07/24 09:16:25;;;;;;;11.40;5.40;;;;;;;24.95;57.88;100895.27;108118;1244;57945;-73
2022/07/24 09:19:04;;;;;;;;;;;;;;;24.85;57.60;100900.11;107723;1243;61372;-74
2022/07/24 09:21:39;;;;;;;10.50;5.30;;;;;;;24.77;57.24;100898.35;107891;1244;74934;-78
2022/07/24 09:24:17;;;;;;;12.50;6.50;;;;;;;24.73;58.38;100900.77;108076;1243;61827;-78
2022/07/24 09:26:52;;;;;;;13.00;6.30;;;;;;;24.75;57.98;100905.01;108008;1244;59578;-83
2022/07/24 09:29:24;;;;;;;9.80;5.70;;;;;;;24.87;57.03;100907.02;108129;1243;62721;-75
2022/07/24 09:32:02;;;;;;;14.90;6.70;;;;;;;24.91;57.02;100905.48;108066;1244;59584;-73
2022/07/24 09:34:39;;;;;;;12.70;7.10;;;;;;;24.99;56.48;100905.23;107809;1244;59753;-78
2022/07/24 09:37:09;;;;;;;17.90;7.70;;;;;;;25.07;56.38;100903.64;108062;1244;63451;-73
2022/07/24 09:39:38;;;;;;;11.40;7.70;;;;;;;25.15;56.56;100898.64;108133;1244;62605;-78
2022/07/24 09:42:08;;;;;;;11.00;7.20;;;;;;;25.18;58.73;100897.00;108151;1244;59561;-73
2022/07/24 09:44:38;;;;;;;13.20;7.50;;;;;;;25.14;60.17;100897.27;108089;1244;63456;-74
2022/07/24 09:47:10;;;;;;;11.90;8.00;;;;;;;25.08;60.61;100890.67;107892;1244;60500;-77
2022/07/24 09:49:40;;;;;;;10.20;6.70;;;;;;;25.22;60.25;100891.04;108024;1244;57975;-78
2022/07/24 09:52:16;;;;;;;9.20;6.80;;;;;;;25.40;60.09;100898.60;108084;1244;73527;-74
2022/07/24 09:54:49;;;;;;;7.80;5.70;;;;;;;25.60;58.32;100898.84;107749;1247;61407;-76
2022/07/24 09:57:27;;;;;;;10.90;5.90;;;;;;;25.66;57.51;100891.34;108000;1244;70649;-74
2022/07/24 10:00:02;;;;;;;9.90;6.10;;;;;;;25.70;56.06;100893.71;107771;1244;74832;-77
2022/07/24 10:02:33;;;;;;;11.70;6.30;;;;;;;25.83;55.32;100888.77;107643;1244;59621;-76
2022/07/24 10:05:04;;;;;;;7.80;5.60;;;;;;;26.11;54.28;100888.45;107997;1243;61498;-79
2022/07/24 10:07:34;;;;;;;9.20;6.20;;;;;;;26.24;53.29;100888.56;107982;1244;63363;-81
2022/07/24 10:10:03;;;;;;;12.50;6.70;;;;;;;26.41;51.23;100881.73;107995;1244;71582;-77
2022/07/24 10:12:32;;;;;;;11.80;6.00;;;;;;;26.50;51.28;100881.84;107980;1244;60167;-77
2022/07/24 10:15:02;;;;;;;12.30;6.20;;;;;;;26.75;50.93;100877.98;107837;1245;62332;-76
2022/07/24 10:17:41;;;;;;;7.80;5.80;;;;;;;27.06;49.56;100872.90;107797;1245;59646;-78
2022/07/24 10:20:10;;;;;;;10.50;5.90;;;;;;;27.36;47.83;100865.66;107897;1244;61269;-74
2022/07/24 10:23:06;;;;;;;8.90;5.20;;;;;;;27.56;46.04;100858.73;107836;1243;64076;-78
2022/07/24 10:26:06;;;;;;;8.00;5.60;;;;;;;27.85;45.71;100861.77;107653;1244;71652;-78
2022/07/24 10:28:40;;;;;;;9.10;5.60;;;;;;;28.06;46.09;100854.71;108103;1244;70319;-75
2022/07/24 10:31:13;;;;;;;9.40;5.70;;;;;;;28.19;45.22;100858.30;108023;1244;63666;-77
2022/07/24 10:33:49;;;;;;;9.50;5.60;;;;;;;27.91;45.09;100852.48;108063;1244;61177;-78
2022/07/24 10:36:26;;;;;;;6.30;5.00;;;;;;;28.44;44.95;100853.73;107918;1244;57885;-76
2022/07/24 10:39:13;;;;;;;11.90;5.10;;;;;;;28.87;43.59;100857.24;108007;1244;65535;-77
2022/07/24 10:41:42;;;;;;;9.30;5.90;;;;;;;29.10;43.08;100854.17;107806;1246;61849;-76
2022/07/24 10:44:20;;;;;;;8.70;5.90;;;;;;;28.86;43.67;100848.23;107883;1244;71463;-75
2022/07/24 10:47:16;;;;;;;8.60;5.10;;;;;;;29.29;43.06;100842.27;107879;1244;63010;-75
2022/07/24 10:49:50;;;;;;;10.00;5.70;;;;;;;29.75;41.20;100841.70;108051;1244;61289;-78
2022/07/24 10:52:32;;;;;;;7.50;5.30;;;;;;;30.21;40.20;100843.20;108015;1244;60984;-74
2022/07/24 10:55:31;;;;;;;8.10;4.90;;;;;;;30.64;39.17;100841.25;107918;1246;64598;-78
2022/07/24 10:58:10;;;;;;;7.80;5.60;;;;;;;30.80;38.70;100840.46;107885;1244;72180;-75
2022/07/24 11:00:48;;;;;;;9.10;5.10;;;;;;;30.77;37.85;100836.80;108099;1244;60754;-76
2022/07/24 11:03:22;;;;;;;7.40;5.90;;;;;;;31.06;36.63;100839.50;107975;1245;63230;-77
2022/07/24 11:06:12;;;;;;;11.10;5.60;;;;;;;31.26;36.11;100833.77;108119;1244;61352;-74
2022/07/24 11:08:48;;;;;;;7.50;5.70;;;;;;;31.61;35.69;100828.96;107905;1244;60584;-77
2022/07/24 11:11:20;;;;;;;9.30;5.40;;;;;;;32.12;35.14;100819.75;108034;1244;74943;-77
2022/07/24 11:13:54;;;;;;;7.10;5.00;;;;;;;32.31;34.92;100813.63;107954;1244;72081;-76
2022/07/24 11:16:30;;;;;;;9.00;5.50;;;;;;;32.51;34.44;100812.95;107909;1245;59539;-77
2022/07/24 11:18:59;;;;;;;10.80;6.10;;;;;;;32.73;34.54;100811.17;107832;1244;63321;-75
2022/07/24 11:21:42;;;;;;;8.00;5.40;;;;;;;33.34;34.20;100809.63;108140;1244;59776;-80
2022/07/24 11:24:13;;;;;;;;;;;;;;;33.14;34.24;100800.33;108665;1244;60655;-78
2022/07/24 11:27:03;;;;;;;8.30;6.00;;;;;;;32.86;34.18;100792.23;108077;1243;74051;-82
2022/07/24 11:29:38;;;;;;;7.70;5.10;;;;;;;33.61;33.73;100789.90;108065;1244;72260;-80
2022/07/24 11:32:17;;;;;;;8.60;5.50;;;;;;;33.75;33.06;100783.88;107769;1244;70574;-76
2022/07/24 11:34:51;;;;;;;8.20;5.70;;;;;;;33.44;33.37;100783.23;107807;1244;73736;-78